sensor_id;sensor_type;location;lat;lon;timestamp;temperature;humidity
254;DHT22;590;48.772;8.846;2023-04-03T00:01:00;17.30;3.60
254;DHT22;590;48.772;8.846;2023-04-03T00:03:28;17.30;2.90
254;DHT22;590;48.772;8.846;2023-04-03T00:05:56;17.30;3.60
254;DHT22;590;48.772;8.846;2023-04-03T00:08:24;17.30;3.00
254;DHT22;590;48.772;8.846;2023-04-03T00:10:52;17.30;3.00
254;DHT22;590;48.772;8.846;2023-04-03T00:13:22;17.30;3.00
254;DHT22;590;48.772;8.846;2023-04-03T00:15:50;17.30;3.00
254;DHT22;590;48.772;8.846;2023-04-03T00:18:18;17.30;2.90
254;DHT22;590;48.772;8.846;2023-04-03T00:20:47;17.30;2.90
254;DHT22;590;48.772;8.846;2023-04-03T00:23:15;17.30;3.10
254;DHT22;590;48.772;8.846;2023-04-03T00:25:43;17.30;2.80
254;DHT22;590;48.772;8.846;2023-04-03T00:28:12;17.30;2.80
254;DHT22;590;48.772;8.846;2023-04-03T00:30:41;17.30;2.80
254;DHT22;590;48.772;8.846;2023-04-03T00:33:11;17.30;2.80
254;DHT22;590;48.772;8.846;2023-04-03T00:35:41;17.20;2.80
254;DHT22;590;48.772;8.846;2023-04-03T00:38:09;17.30;2.90
254;DHT22;590;48.772;8.846;2023-04-03T00:40:39;17.20;2.60
254;DHT22;590;48.772;8.846;2023-04-03T00:43:13;17.20;2.60
254;DHT22;590;48.772;8.846;2023-04-03T00:45:44;17.20;2.70
254;DHT22;590;48.772;8.846;2023-04-03T00:48:15;17.20;2.80
254;DHT22;590;48.772;8.846;2023-04-03T00:50:45;17.20;2.80
254;DHT22;590;48.772;8.846;2023-04-03T00:53:17;17.20;2.80
254;DHT22;590;48.772;8.846;2023-04-03T00:55:47;17.20;2.70
254;DHT22;590;48.772;8.846;2023-04-03T00:58:17;17.20;2.80
254;DHT22;590;48.772;8.846;2023-04-03T01:00:52;17.20;2.70
254;DHT22;590;48.772;8.846;2023-04-03T01:03:24;17.20;2.70
254;DHT22;590;48.772;8.846;2023-04-03T01:05:52;17.20;2.80
254;DHT22;590;48.772;8.846;2023-04-03T01:08:20;17.20;2.80
254;DHT22;590;48.772;8.846;2023-04-03T01:10:48;17.20;2.70
254;DHT22;590;48.772;8.846;2023-04-03T01:13:25;17.20;2.60
254;DHT22;590;48.772;8.846;2023-04-03T01:15:56;17.20;2.60
254;DHT22;590;48.772;8.846;2023-04-03T01:18:25;17.20;2.70
254;DHT22;590;48.772;8.846;2023-04-03T01:24:07;17.20;2.70
254;DHT22;590;48.772;8.846;2023-04-03T01:26:39;17.20;2.70
254;DHT22;590;48.772;8.846;2023-04-03T01:29:07;17.10;2.60
254;DHT22;590;48.772;8.846;2023-04-03T01:31:49;17.10;2.60
254;DHT22;590;48.772;8.846;2023-04-03T01:34:18;17.10;2.50
254;DHT22;590;48.772;8.846;2023-04-03T01:36:46;17.10;2.50
254;DHT22;590;48.772;8.846;2023-04-03T01:39:15;17.10;2.50
254;DHT22;590;48.772;8.846;2023-04-03T01:41:43;17.10;2.40
254;DHT22;590;48.772;8.846;2023-04-03T01:44:12;17.10;2.40
254;DHT22;590;48.772;8.846;2023-04-03T01:46:40;17.10;2.40
254;DHT22;590;48.772;8.846;2023-04-03T01:49:10;17.10;2.50
254;DHT22;590;48.772;8.846;2023-04-03T01:51:38;17.10;2.40
254;DHT22;590;48.772;8.846;2023-04-03T01:54:06;17.10;2.40
254;DHT22;590;48.772;8.846;2023-04-03T01:56:34;17.10;2.40
254;DHT22;590;48.772;8.846;2023-04-03T01:59:02;17.10;2.40
254;DHT22;590;48.772;8.846;2023-04-03T02:01:30;17.10;2.30
254;DHT22;590;48.772;8.846;2023-04-03T02:03:58;17.10;2.30
254;DHT22;590;48.772;8.846;2023-04-03T02:06:27;17.10;2.30
254;DHT22;590;48.772;8.846;2023-04-03T02:08:55;17.10;2.30
254;DHT22;590;48.772;8.846;2023-04-03T02:11:23;17.10;2.20
254;DHT22;590;48.772;8.846;2023-04-03T02:13:51;17.10;2.30
254;DHT22;590;48.772;8.846;2023-04-03T02:16:19;17.10;2.20
254;DHT22;590;48.772;8.846;2023-04-03T02:18:47;17.10;2.30
254;DHT22;590;48.772;8.846;2023-04-03T02:21:16;17.10;2.20
254;DHT22;590;48.772;8.846;2023-04-03T02:23:45;17.10;2.20
254;DHT22;590;48.772;8.846;2023-04-03T02:26:15;17.10;2.10
254;DHT22;590;48.772;8.846;2023-04-03T02:28:44;17.00;2.10
254;DHT22;590;48.772;8.846;2023-04-03T02:31:12;17.00;2.10
254;DHT22;590;48.772;8.846;2023-04-03T02:33:40;17.00;2.00
254;DHT22;590;48.772;8.846;2023-04-03T02:36:08;17.00;2.00
254;DHT22;590;48.772;8.846;2023-04-03T02:38:36;17.10;2.10
254;DHT22;590;48.772;8.846;2023-04-03T02:41:07;17.00;2.00
254;DHT22;590;48.772;8.846;2023-04-03T02:43:36;17.00;2.00
254;DHT22;590;48.772;8.846;2023-04-03T02:46:04;17.00;2.00
254;DHT22;590;48.772;8.846;2023-04-03T02:48:33;17.00;2.00
254;DHT22;590;48.772;8.846;2023-04-03T02:51:02;17.00;2.00
254;DHT22;590;48.772;8.846;2023-04-03T02:53:30;17.00;1.90
254;DHT22;590;48.772;8.846;2023-04-03T02:55:58;17.00;2.00
254;DHT22;590;48.772;8.846;2023-04-03T02:58:27;17.00;2.00
254;DHT22;590;48.772;8.846;2023-04-03T03:00:55;17.00;1.90
254;DHT22;590;48.772;8.846;2023-04-03T03:03:23;17.00;1.90
254;DHT22;590;48.772;8.846;2023-04-03T03:06:01;17.00;1.90
254;DHT22;590;48.772;8.846;2023-04-03T03:08:29;17.00;1.90
254;DHT22;590;48.772;8.846;2023-04-03T03:10:57;17.00;1.90
254;DHT22;590;48.772;8.846;2023-04-03T03:13:26;17.00;1.90
254;DHT22;590;48.772;8.846;2023-04-03T03:15:54;17.00;1.90
254;DHT22;590;48.772;8.846;2023-04-03T03:18:22;17.00;1.90
254;DHT22;590;48.772;8.846;2023-04-03T03:20:51;17.00;1.90
254;DHT22;590;48.772;8.846;2023-04-03T03:23:20;17.00;1.90
254;DHT22;590;48.772;8.846;2023-04-03T03:25:48;17.00;1.90
254;DHT22;590;48.772;8.846;2023-04-03T03:28:16;17.00;1.90
254;DHT22;590;48.772;8.846;2023-04-03T03:30:45;17.00;1.80
254;DHT22;590;48.772;8.846;2023-04-03T03:33:14;17.00;1.90
254;DHT22;590;48.772;8.846;2023-04-03T03:35:44;16.90;1.80
254;DHT22;590;48.772;8.846;2023-04-03T03:38:12;17.00;1.90
254;DHT22;590;48.772;8.846;2023-04-03T03:40:40;16.90;1.80
254;DHT22;590;48.772;8.846;2023-04-03T03:43:08;16.90;1.80
254;DHT22;590;48.772;8.846;2023-04-03T03:45:36;16.90;1.80
254;DHT22;590;48.772;8.846;2023-04-03T03:48:06;16.90;1.70
254;DHT22;590;48.772;8.846;2023-04-03T03:50:34;16.90;1.80
254;DHT22;590;48.772;8.846;2023-04-03T03:53:02;16.90;1.80
254;DHT22;590;48.772;8.846;2023-04-03T03:55:30;16.90;1.90
254;DHT22;590;48.772;8.846;2023-04-03T03:57:58;16.90;1.90
254;DHT22;590;48.772;8.846;2023-04-03T04:00:27;16.90;1.90
254;DHT22;590;48.772;8.846;2023-04-03T04:02:56;16.90;1.90
254;DHT22;590;48.772;8.846;2023-04-03T04:05:26;16.90;1.90
254;DHT22;590;48.772;8.846;2023-04-03T04:07:54;17.00;2.10
254;DHT22;590;48.772;8.846;2023-04-03T04:10:22;17.00;2.00
254;DHT22;590;48.772;8.846;2023-04-03T04:12:50;17.00;2.60
254;DHT22;590;48.772;8.846;2023-04-03T04:15:19;17.00;2.10
254;DHT22;590;48.772;8.846;2023-04-03T04:17:48;17.00;1.90
254;DHT22;590;48.772;8.846;2023-04-03T04:20:16;17.00;1.80
254;DHT22;590;48.772;8.846;2023-04-03T04:22:46;17.00;1.90
254;DHT22;590;48.772;8.846;2023-04-03T04:25:14;17.00;1.80
254;DHT22;590;48.772;8.846;2023-04-03T04:27:42;17.00;1.90
254;DHT22;590;48.772;8.846;2023-04-03T04:30:11;17.00;1.90
254;DHT22;590;48.772;8.846;2023-04-03T04:32:39;17.00;1.90
254;DHT22;590;48.772;8.846;2023-04-03T04:35:08;17.00;2.00
254;DHT22;590;48.772;8.846;2023-04-03T04:37:36;17.00;2.00
254;DHT22;590;48.772;8.846;2023-04-03T04:40:07;17.10;2.10
254;DHT22;590;48.772;8.846;2023-04-03T04:42:35;17.10;2.00
254;DHT22;590;48.772;8.846;2023-04-03T04:45:03;17.10;2.00
254;DHT22;590;48.772;8.846;2023-04-03T04:47:37;17.10;2.00
254;DHT22;590;48.772;8.846;2023-04-03T04:50:09;17.10;2.00
254;DHT22;590;48.772;8.846;2023-04-03T04:52:38;17.10;2.00
254;DHT22;590;48.772;8.846;2023-04-03T04:55:08;17.10;1.90
254;DHT22;590;48.772;8.846;2023-04-03T04:57:36;17.10;1.90
254;DHT22;590;48.772;8.846;2023-04-03T05:00:07;17.10;1.90
254;DHT22;590;48.772;8.846;2023-04-03T05:02:35;17.20;2.00
254;DHT22;590;48.772;8.846;2023-04-03T05:05:03;17.20;2.00
254;DHT22;590;48.772;8.846;2023-04-03T05:07:32;17.20;2.00
254;DHT22;590;48.772;8.846;2023-04-03T05:10:00;17.20;1.90
254;DHT22;590;48.772;8.846;2023-04-03T05:12:30;17.20;1.90
254;DHT22;590;48.772;8.846;2023-04-03T05:14:58;17.20;1.90
254;DHT22;590;48.772;8.846;2023-04-03T05:17:26;17.20;1.90
254;DHT22;590;48.772;8.846;2023-04-03T05:19:54;17.20;1.90
254;DHT22;590;48.772;8.846;2023-04-03T05:22:22;17.20;1.90
254;DHT22;590;48.772;8.846;2023-04-03T05:24:50;17.20;1.90
254;DHT22;590;48.772;8.846;2023-04-03T05:27:18;17.20;1.80
254;DHT22;590;48.772;8.846;2023-04-03T05:29:52;17.20;1.80
254;DHT22;590;48.772;8.846;2023-04-03T05:32:21;17.20;1.80
254;DHT22;590;48.772;8.846;2023-04-03T05:34:50;17.20;1.80
254;DHT22;590;48.772;8.846;2023-04-03T05:37:18;17.20;1.80
254;DHT22;590;48.772;8.846;2023-04-03T05:39:47;17.30;1.90
254;DHT22;590;48.772;8.846;2023-04-03T05:42:15;17.30;1.90
254;DHT22;590;48.772;8.846;2023-04-03T05:44:43;17.30;1.90
254;DHT22;590;48.772;8.846;2023-04-03T05:47:18;17.30;1.90
254;DHT22;590;48.772;8.846;2023-04-03T05:49:46;17.30;1.90
254;DHT22;590;48.772;8.846;2023-04-03T05:52:20;17.30;1.90
254;DHT22;590;48.772;8.846;2023-04-03T05:54:49;17.30;2.40
254;DHT22;590;48.772;8.846;2023-04-03T05:57:17;17.30;1.80
254;DHT22;590;48.772;8.846;2023-04-03T05:59:46;17.30;1.80
254;DHT22;590;48.772;8.846;2023-04-03T06:02:18;17.30;1.80
254;DHT22;590;48.772;8.846;2023-04-03T06:04:46;17.30;1.80
254;DHT22;590;48.772;8.846;2023-04-03T06:07:17;17.30;1.70
254;DHT22;590;48.772;8.846;2023-04-03T06:09:48;17.30;1.70
254;DHT22;590;48.772;8.846;2023-04-03T06:12:19;17.30;1.70
254;DHT22;590;48.772;8.846;2023-04-03T06:14:48;17.30;1.60
254;DHT22;590;48.772;8.846;2023-04-03T06:17:18;17.30;1.50
254;DHT22;590;48.772;8.846;2023-04-03T06:19:46;17.30;1.60
254;DHT22;590;48.772;8.846;2023-04-03T06:22:14;17.30;1.60
254;DHT22;590;48.772;8.846;2023-04-03T06:24:42;17.30;1.40
254;DHT22;590;48.772;8.846;2023-04-03T06:27:10;17.30;1.40
254;DHT22;590;48.772;8.846;2023-04-03T06:29:39;17.30;1.40
254;DHT22;590;48.772;8.846;2023-04-03T06:32:07;17.30;2.00
254;DHT22;590;48.772;8.846;2023-04-03T06:34:36;17.30;1.40
254;DHT22;590;48.772;8.846;2023-04-03T06:37:04;17.30;1.40
254;DHT22;590;48.772;8.846;2023-04-03T06:39:32;17.30;1.40
254;DHT22;590;48.772;8.846;2023-04-03T06:42:01;17.30;1.40
254;DHT22;590;48.772;8.846;2023-04-03T06:44:29;17.30;1.40
254;DHT22;590;48.772;8.846;2023-04-03T06:46:57;17.30;1.40
254;DHT22;590;48.772;8.846;2023-04-03T06:49:27;17.30;1.40
254;DHT22;590;48.772;8.846;2023-04-03T06:51:57;17.30;1.40
254;DHT22;590;48.772;8.846;2023-04-03T06:54:28;17.30;1.40
254;DHT22;590;48.772;8.846;2023-04-03T06:56:56;17.30;1.40
254;DHT22;590;48.772;8.846;2023-04-03T06:59:24;17.30;1.40
254;DHT22;590;48.772;8.846;2023-04-03T07:01:52;17.40;1.50
254;DHT22;590;48.772;8.846;2023-04-03T07:04:20;17.40;1.50
254;DHT22;590;48.772;8.846;2023-04-03T07:06:48;17.40;1.50
254;DHT22;590;48.772;8.846;2023-04-03T07:09:18;17.40;1.50
254;DHT22;590;48.772;8.846;2023-04-03T07:11:47;17.40;1.50
254;DHT22;590;48.772;8.846;2023-04-03T07:14:20;17.40;1.50
254;DHT22;590;48.772;8.846;2023-04-03T07:16:48;17.40;1.50
254;DHT22;590;48.772;8.846;2023-04-03T07:19:17;17.40;1.50
254;DHT22;590;48.772;8.846;2023-04-03T07:21:46;17.40;1.50
254;DHT22;590;48.772;8.846;2023-04-03T07:24:13;17.30;1.40
254;DHT22;590;48.772;8.846;2023-04-03T07:26:44;17.40;1.50
254;DHT22;590;48.772;8.846;2023-04-03T07:29:12;17.40;1.50
254;DHT22;590;48.772;8.846;2023-04-03T07:31:40;17.40;1.50
254;DHT22;590;48.772;8.846;2023-04-03T07:34:09;17.40;1.50
254;DHT22;590;48.772;8.846;2023-04-03T07:36:37;17.40;1.50
254;DHT22;590;48.772;8.846;2023-04-03T07:39:05;17.40;1.50
254;DHT22;590;48.772;8.846;2023-04-03T07:41:34;17.40;1.50
254;DHT22;590;48.772;8.846;2023-04-03T07:44:04;17.40;1.50
254;DHT22;590;48.772;8.846;2023-04-03T07:46:32;17.40;1.50
254;DHT22;590;48.772;8.846;2023-04-03T07:49:00;17.40;1.50
254;DHT22;590;48.772;8.846;2023-04-03T07:51:29;17.40;1.50
254;DHT22;590;48.772;8.846;2023-04-03T07:53:57;17.40;1.50
254;DHT22;590;48.772;8.846;2023-04-03T07:56:25;17.40;1.50
254;DHT22;590;48.772;8.846;2023-04-03T07:58:53;17.40;1.50
254;DHT22;590;48.772;8.846;2023-04-03T08:01:23;17.40;1.50
254;DHT22;590;48.772;8.846;2023-04-03T08:03:51;17.40;1.50
254;DHT22;590;48.772;8.846;2023-04-03T08:06:19;17.40;1.50
254;DHT22;590;48.772;8.846;2023-04-03T08:09:07;17.40;1.50
254;DHT22;590;48.772;8.846;2023-04-03T08:11:35;17.40;1.50
254;DHT22;590;48.772;8.846;2023-04-03T08:14:06;17.40;1.40
254;DHT22;590;48.772;8.846;2023-04-03T08:16:35;17.40;1.40
254;DHT22;590;48.772;8.846;2023-04-03T08:19:03;17.40;1.40
254;DHT22;590;48.772;8.846;2023-04-03T08:21:40;17.40;1.50
254;DHT22;590;48.772;8.846;2023-04-03T08:24:09;17.40;2.00
254;DHT22;590;48.772;8.846;2023-04-03T08:26:37;17.40;1.40
254;DHT22;590;48.772;8.846;2023-04-03T08:29:05;17.40;1.80
254;DHT22;590;48.772;8.846;2023-04-03T08:31:40;17.40;1.20
254;DHT22;590;48.772;8.846;2023-04-03T08:34:08;17.40;1.10
254;DHT22;590;48.772;8.846;2023-04-03T08:36:36;17.40;1.10
254;DHT22;590;48.772;8.846;2023-04-03T08:39:04;17.30;1.00
254;DHT22;590;48.772;8.846;2023-04-03T08:41:34;17.30;1.00
254;DHT22;590;48.772;8.846;2023-04-03T08:44:24;17.30;1.10
254;DHT22;590;48.772;8.846;2023-04-03T08:47:04;17.40;1.10
254;DHT22;590;48.772;8.846;2023-04-03T08:49:41;17.40;1.00
254;DHT22;590;48.772;8.846;2023-04-03T08:52:16;17.30;1.00
254;DHT22;590;48.772;8.846;2023-04-03T08:54:50;17.40;1.00
254;DHT22;590;48.772;8.846;2023-04-03T08:57:24;17.30;1.00
254;DHT22;590;48.772;8.846;2023-04-03T08:59:54;17.40;1.00
254;DHT22;590;48.772;8.846;2023-04-03T09:02:28;17.30;1.00
254;DHT22;590;48.772;8.846;2023-04-03T09:04:57;17.40;1.00
254;DHT22;590;48.772;8.846;2023-04-03T09:07:33;17.30;1.00
254;DHT22;590;48.772;8.846;2023-04-03T09:10:04;17.40;1.00
254;DHT22;590;48.772;8.846;2023-04-03T09:12:37;17.40;1.00
254;DHT22;590;48.772;8.846;2023-04-03T09:15:15;17.40;1.00
254;DHT22;590;48.772;8.846;2023-04-03T09:18:05;17.40;1.00
254;DHT22;590;48.772;8.846;2023-04-03T09:20:43;17.40;1.00
254;DHT22;590;48.772;8.846;2023-04-03T09:23:22;17.40;1.00
254;DHT22;590;48.772;8.846;2023-04-03T09:26:00;17.30;1.00
254;DHT22;590;48.772;8.846;2023-04-03T09:28:32;17.40;1.00
254;DHT22;590;48.772;8.846;2023-04-03T09:31:19;17.30;1.00
254;DHT22;590;48.772;8.846;2023-04-03T09:33:50;17.30;1.00
254;DHT22;590;48.772;8.846;2023-04-03T09:39:03;17.30;1.00
254;DHT22;590;48.772;8.846;2023-04-03T09:41:31;17.40;1.00
254;DHT22;590;48.772;8.846;2023-04-03T09:44:00;17.30;1.00
254;DHT22;590;48.772;8.846;2023-04-03T09:46:32;17.30;1.00
254;DHT22;590;48.772;8.846;2023-04-03T09:49:03;17.30;1.00
254;DHT22;590;48.772;8.846;2023-04-03T09:51:35;17.30;1.00
254;DHT22;590;48.772;8.846;2023-04-03T09:54:25;17.30;1.00
254;DHT22;590;48.772;8.846;2023-04-03T09:56:54;17.30;1.00
254;DHT22;590;48.772;8.846;2023-04-03T09:59:23;17.30;1.00
254;DHT22;590;48.772;8.846;2023-04-03T10:01:59;17.30;1.00
254;DHT22;590;48.772;8.846;2023-04-03T10:04:37;17.30;1.00
254;DHT22;590;48.772;8.846;2023-04-03T10:07:28;17.30;1.00
254;DHT22;590;48.772;8.846;2023-04-03T10:09:58;17.30;1.00
254;DHT22;590;48.772;8.846;2023-04-03T10:12:26;17.30;1.00
254;DHT22;590;48.772;8.846;2023-04-03T10:14:56;17.30;1.00
254;DHT22;590;48.772;8.846;2023-04-03T10:17:35;17.30;1.00
254;DHT22;590;48.772;8.846;2023-04-03T10:20:15;17.30;1.00
254;DHT22;590;48.772;8.846;2023-04-03T10:23:00;17.30;1.00
254;DHT22;590;48.772;8.846;2023-04-03T10:25:35;17.30;1.00
254;DHT22;590;48.772;8.846;2023-04-03T10:28:10;17.30;1.00
254;DHT22;590;48.772;8.846;2023-04-03T10:30:46;17.30;1.00
254;DHT22;590;48.772;8.846;2023-04-03T10:33:23;17.30;1.00
254;DHT22;590;48.772;8.846;2023-04-03T10:36:06;17.30;1.00
254;DHT22;590;48.772;8.846;2023-04-03T10:38:43;17.30;1.00
254;DHT22;590;48.772;8.846;2023-04-03T10:41:21;17.30;1.00
254;DHT22;590;48.772;8.846;2023-04-03T10:43:59;17.30;1.00
254;DHT22;590;48.772;8.846;2023-04-03T10:46:35;17.30;1.00
254;DHT22;590;48.772;8.846;2023-04-03T10:49:16;17.30;1.00
254;DHT22;590;48.772;8.846;2023-04-03T10:51:54;17.30;1.00
254;DHT22;590;48.772;8.846;2023-04-03T10:54:31;17.30;1.00
254;DHT22;590;48.772;8.846;2023-04-03T10:57:05;17.30;1.00
254;DHT22;590;48.772;8.846;2023-04-03T10:59:41;17.30;1.00
254;DHT22;590;48.772;8.846;2023-04-03T11:02:16;17.30;1.00
254;DHT22;590;48.772;8.846;2023-04-03T11:04:50;17.30;1.00
254;DHT22;590;48.772;8.846;2023-04-03T11:07:21;17.30;1.00
254;DHT22;590;48.772;8.846;2023-04-03T11:09:53;17.30;1.00
254;DHT22;590;48.772;8.846;2023-04-03T11:12:26;17.30;1.00
254;DHT22;590;48.772;8.846;2023-04-03T11:14:57;17.30;1.00
254;DHT22;590;48.772;8.846;2023-04-03T11:17:30;17.30;1.00
254;DHT22;590;48.772;8.846;2023-04-03T11:20:03;17.30;1.00
254;DHT22;590;48.772;8.846;2023-04-03T11:22:39;17.30;1.00
254;DHT22;590;48.772;8.846;2023-04-03T11:25:18;17.30;1.00
254;DHT22;590;48.772;8.846;2023-04-03T11:27:53;17.30;1.00
254;DHT22;590;48.772;8.846;2023-04-03T11:30:24;17.30;1.00
254;DHT22;590;48.772;8.846;2023-04-03T11:33:10;17.30;1.00
254;DHT22;590;48.772;8.846;2023-04-03T11:35:43;17.30;1.00
254;DHT22;590;48.772;8.846;2023-04-03T11:38:19;17.30;1.00
254;DHT22;590;48.772;8.846;2023-04-03T11:40:50;17.30;1.00
254;DHT22;590;48.772;8.846;2023-04-03T11:43:23;17.30;1.00
254;DHT22;590;48.772;8.846;2023-04-03T11:45:57;17.30;1.00
254;DHT22;590;48.772;8.846;2023-04-03T11:48:52;17.30;1.00
254;DHT22;590;48.772;8.846;2023-04-03T11:51:42;17.30;1.00
254;DHT22;590;48.772;8.846;2023-04-03T11:54:36;17.30;1.00
254;DHT22;590;48.772;8.846;2023-04-03T11:57:45;17.30;1.00
254;DHT22;590;48.772;8.846;2023-04-03T12:00:49;17.30;1.00
254;DHT22;590;48.772;8.846;2023-04-03T12:12:39;17.20;1.00
254;DHT22;590;48.772;8.846;2023-04-03T12:15:26;17.20;1.00
254;DHT22;590;48.772;8.846;2023-04-03T12:17:54;17.20;1.00
254;DHT22;590;48.772;8.846;2023-04-03T12:20:54;17.30;1.00
254;DHT22;590;48.772;8.846;2023-04-03T12:23:24;17.30;1.00
254;DHT22;590;48.772;8.846;2023-04-03T12:25:59;17.30;1.00
254;DHT22;590;48.772;8.846;2023-04-03T12:28:36;17.30;1.00
254;DHT22;590;48.772;8.846;2023-04-03T12:31:08;17.30;1.00
254;DHT22;590;48.772;8.846;2023-04-03T12:33:59;17.30;1.00
254;DHT22;590;48.772;8.846;2023-04-03T12:36:37;17.30;1.00
254;DHT22;590;48.772;8.846;2023-04-03T12:39:13;17.30;1.00
254;DHT22;590;48.772;8.846;2023-04-03T12:41:53;17.30;1.00
254;DHT22;590;48.772;8.846;2023-04-03T12:44:35;17.30;1.00
254;DHT22;590;48.772;8.846;2023-04-03T12:47:19;17.30;1.00
254;DHT22;590;48.772;8.846;2023-04-03T12:49:50;17.20;1.00
254;DHT22;590;48.772;8.846;2023-04-03T12:52:28;17.20;1.00
254;DHT22;590;48.772;8.846;2023-04-03T12:54:58;17.20;1.00
254;DHT22;590;48.772;8.846;2023-04-03T12:57:28;17.20;1.00
254;DHT22;590;48.772;8.846;2023-04-03T12:59:59;17.20;1.00
254;DHT22;590;48.772;8.846;2023-04-03T13:02:28;17.20;1.00
254;DHT22;590;48.772;8.846;2023-04-03T13:04:58;17.20;1.00
254;DHT22;590;48.772;8.846;2023-04-03T13:07:30;17.20;1.00
254;DHT22;590;48.772;8.846;2023-04-03T13:10:13;17.20;1.00
254;DHT22;590;48.772;8.846;2023-04-03T13:12:47;17.20;1.00
254;DHT22;590;48.772;8.846;2023-04-03T13:15:19;17.20;1.00
254;DHT22;590;48.772;8.846;2023-04-03T13:17:48;17.20;1.00
254;DHT22;590;48.772;8.846;2023-04-03T13:20:20;17.20;1.00
254;DHT22;590;48.772;8.846;2023-04-03T13:22:53;17.20;1.00
254;DHT22;590;48.772;8.846;2023-04-03T13:25:27;17.20;1.00
254;DHT22;590;48.772;8.846;2023-04-03T13:27:57;17.20;1.00
254;DHT22;590;48.772;8.846;2023-04-03T13:30:31;17.20;1.00
254;DHT22;590;48.772;8.846;2023-04-03T13:33:03;17.20;1.00
254;DHT22;590;48.772;8.846;2023-04-03T13:35:36;17.20;1.00
254;DHT22;590;48.772;8.846;2023-04-03T13:38:07;17.20;1.00
254;DHT22;590;48.772;8.846;2023-04-03T13:40:49;17.20;1.00
254;DHT22;590;48.772;8.846;2023-04-03T13:43:21;17.20;1.00
254;DHT22;590;48.772;8.846;2023-04-03T13:46:05;17.20;1.00
254;DHT22;590;48.772;8.846;2023-04-03T13:48:38;17.20;1.00
254;DHT22;590;48.772;8.846;2023-04-03T13:51:17;17.20;1.00
254;DHT22;590;48.772;8.846;2023-04-03T13:53:48;17.20;1.00
254;DHT22;590;48.772;8.846;2023-04-03T13:56:21;17.20;1.00
254;DHT22;590;48.772;8.846;2023-04-03T13:58:58;17.20;1.00
254;DHT22;590;48.772;8.846;2023-04-03T14:01:36;17.20;1.00
254;DHT22;590;48.772;8.846;2023-04-03T14:04:17;17.20;1.00
254;DHT22;590;48.772;8.846;2023-04-03T14:06:46;17.20;1.00
254;DHT22;590;48.772;8.846;2023-04-03T14:09:15;17.20;1.00
254;DHT22;590;48.772;8.846;2023-04-03T14:11:44;17.20;1.00
254;DHT22;590;48.772;8.846;2023-04-03T14:14:15;17.20;1.00
254;DHT22;590;48.772;8.846;2023-04-03T14:16:47;17.20;1.00
254;DHT22;590;48.772;8.846;2023-04-03T14:19:19;17.20;1.00
254;DHT22;590;48.772;8.846;2023-04-03T14:21:48;17.20;1.00
254;DHT22;590;48.772;8.846;2023-04-03T14:24:17;17.20;1.00
254;DHT22;590;48.772;8.846;2023-04-03T14:26:46;17.20;1.00
254;DHT22;590;48.772;8.846;2023-04-03T14:29:15;17.20;1.00
254;DHT22;590;48.772;8.846;2023-04-03T14:31:46;17.20;1.00
254;DHT22;590;48.772;8.846;2023-04-03T14:34:16;17.20;1.00
254;DHT22;590;48.772;8.846;2023-04-03T14:36:45;17.20;1.00
254;DHT22;590;48.772;8.846;2023-04-03T14:39:17;17.20;1.00
254;DHT22;590;48.772;8.846;2023-04-03T14:41:46;17.20;1.00
254;DHT22;590;48.772;8.846;2023-04-03T14:44:14;17.20;1.00
254;DHT22;590;48.772;8.846;2023-04-03T14:46:45;17.20;1.00
254;DHT22;590;48.772;8.846;2023-04-03T14:49:25;17.20;1.00
254;DHT22;590;48.772;8.846;2023-04-03T14:51:55;17.20;1.00
254;DHT22;590;48.772;8.846;2023-04-03T14:54:23;17.20;1.00
254;DHT22;590;48.772;8.846;2023-04-03T14:56:55;17.20;1.00
254;DHT22;590;48.772;8.846;2023-04-03T14:59:25;17.20;1.00
254;DHT22;590;48.772;8.846;2023-04-03T15:01:55;17.20;1.00
254;DHT22;590;48.772;8.846;2023-04-03T15:04:23;17.20;1.00
254;DHT22;590;48.772;8.846;2023-04-03T15:06:52;17.20;1.00
254;DHT22;590;48.772;8.846;2023-04-03T15:09:23;17.20;1.00
254;DHT22;590;48.772;8.846;2023-04-03T15:11:53;17.20;1.00
254;DHT22;590;48.772;8.846;2023-04-03T15:14:22;17.20;1.00
254;DHT22;590;48.772;8.846;2023-04-03T15:17:04;17.20;1.00
254;DHT22;590;48.772;8.846;2023-04-03T15:19:36;17.20;1.00
254;DHT22;590;48.772;8.846;2023-04-03T15:22:05;17.20;1.00
254;DHT22;590;48.772;8.846;2023-04-03T15:24:33;17.20;1.00
254;DHT22;590;48.772;8.846;2023-04-03T15:27:01;17.20;1.00
254;DHT22;590;48.772;8.846;2023-04-03T15:29:29;17.20;1.00
254;DHT22;590;48.772;8.846;2023-04-03T15:31:57;17.20;1.00
254;DHT22;590;48.772;8.846;2023-04-03T15:34:27;17.20;1.00
254;DHT22;590;48.772;8.846;2023-04-03T15:39:25;17.20;1.00
254;DHT22;590;48.772;8.846;2023-04-03T15:41:58;17.20;1.00
254;DHT22;590;48.772;8.846;2023-04-03T15:44:58;17.20;1.00
254;DHT22;590;48.772;8.846;2023-04-03T15:48:20;17.20;1.00
254;DHT22;590;48.772;8.846;2023-04-03T15:50:50;17.20;1.00
254;DHT22;590;48.772;8.846;2023-04-03T15:53:18;17.20;1.00
254;DHT22;590;48.772;8.846;2023-04-03T15:55:46;17.20;1.00
254;DHT22;590;48.772;8.846;2023-04-03T15:58:15;17.20;1.00
254;DHT22;590;48.772;8.846;2023-04-03T16:00:43;17.20;1.00
254;DHT22;590;48.772;8.846;2023-04-03T16:03:14;17.20;1.00
254;DHT22;590;48.772;8.846;2023-04-03T16:05:46;17.20;1.00
254;DHT22;590;48.772;8.846;2023-04-03T16:08:21;17.20;1.00
254;DHT22;590;48.772;8.846;2023-04-03T16:10:49;17.20;1.00
254;DHT22;590;48.772;8.846;2023-04-03T16:13:17;17.20;1.00
254;DHT22;590;48.772;8.846;2023-04-03T16:15:45;17.20;1.00
254;DHT22;590;48.772;8.846;2023-04-03T16:18:13;17.20;1.00
254;DHT22;590;48.772;8.846;2023-04-03T16:20:42;17.20;1.00
254;DHT22;590;48.772;8.846;2023-04-03T16:23:11;17.20;1.00
254;DHT22;590;48.772;8.846;2023-04-03T16:25:41;17.20;1.00
254;DHT22;590;48.772;8.846;2023-04-03T16:28:13;17.20;1.00
254;DHT22;590;48.772;8.846;2023-04-03T16:30:41;17.20;1.00
254;DHT22;590;48.772;8.846;2023-04-03T16:33:10;17.20;1.00
254;DHT22;590;48.772;8.846;2023-04-03T16:35:39;17.20;1.00
254;DHT22;590;48.772;8.846;2023-04-03T16:38:08;17.20;1.00
254;DHT22;590;48.772;8.846;2023-04-03T16:40:36;17.20;1.00
254;DHT22;590;48.772;8.846;2023-04-03T16:43:06;17.20;1.00
254;DHT22;590;48.772;8.846;2023-04-03T16:45:34;17.20;1.00
254;DHT22;590;48.772;8.846;2023-04-03T16:48:03;17.20;1.00
254;DHT22;590;48.772;8.846;2023-04-03T16:50:31;17.20;1.00
254;DHT22;590;48.772;8.846;2023-04-03T16:53:00;17.20;1.00
254;DHT22;590;48.772;8.846;2023-04-03T16:55:29;17.20;1.00
254;DHT22;590;48.772;8.846;2023-04-03T16:57:58;17.20;1.00
254;DHT22;590;48.772;8.846;2023-04-03T17:00:27;17.20;1.00
254;DHT22;590;48.772;8.846;2023-04-03T17:02:55;17.20;1.00
254;DHT22;590;48.772;8.846;2023-04-03T17:05:23;17.20;1.00
254;DHT22;590;48.772;8.846;2023-04-03T17:07:51;17.20;1.00
254;DHT22;590;48.772;8.846;2023-04-03T17:10:20;17.20;1.00
254;DHT22;590;48.772;8.846;2023-04-03T17:12:48;17.20;1.00
254;DHT22;590;48.772;8.846;2023-04-03T17:15:17;17.20;1.00
254;DHT22;590;48.772;8.846;2023-04-03T17:17:48;17.20;1.00
254;DHT22;590;48.772;8.846;2023-04-03T17:20:16;17.20;1.00
254;DHT22;590;48.772;8.846;2023-04-03T17:22:45;17.20;1.00
254;DHT22;590;48.772;8.846;2023-04-03T17:25:13;17.20;1.00
254;DHT22;590;48.772;8.846;2023-04-03T17:27:42;17.20;1.00
254;DHT22;590;48.772;8.846;2023-04-03T17:30:10;17.30;1.00
254;DHT22;590;48.772;8.846;2023-04-03T17:32:39;17.30;1.00
254;DHT22;590;48.772;8.846;2023-04-03T17:35:08;17.30;1.00
254;DHT22;590;48.772;8.846;2023-04-03T17:37:37;17.30;1.00